Time;durP1;ratioP1;P1;durP2;ratioP2;P2;SDS_P1;SDS_P2;PMS_P1;PMS_P2;Temp;Humidity;BMP_temperature;BMP_pressure;BME280_temperature;BME280_humidity;BME280_pressure;Samples;Min_cycle;Max_cycle;Signal;HPM_P1;HPM_P2
2021/01/01 00:00:09;;;;;;;58.07;46.87;;;;;;;2.75;99.58;97461.44;5004832;28;109023;-75
2021/01/01 00:02:37;;;;;;;55.33;41.33;;;;;;;2.77;100.00;97457.00;4998769;28;102996;-76
2021/01/01 00:05:07;;;;;;;39.53;29.73;;;;;;;2.93;100.00;97468.16;4979486;28;104828;-76
2021/01/01 00:07:34;;;;;;;59.93;45.37;;;;;;;2.87;100.00;97472.91;5002199;28;103604;-76
2021/01/01 00:10:02;;;;;;;58.60;45.20;;;;;;;2.76;100.00;97463.13;5011926;28;104326;-76
2021/01/01 00:12:30;;;;;;;60.07;44.40;;;;;;;2.66;100.00;97464.63;5012231;28;103372;-76
2021/01/01 00:14:58;;;;;;;53.60;40.93;;;;;;;2.40;100.00;97462.72;4997368;28;102939;-75
2021/01/01 00:17:26;;;;;;;37.83;29.20;;;;;;;2.53;100.00;97468.03;4996944;28;104817;-75
2021/01/01 00:19:56;;;;;;;38.20;30.67;;;;;;;2.46;100.00;97472.78;4999474;28;103943;-76
2021/01/01 00:22:23;;;;;;;38.03;26.60;;;;;;;2.41;100.00;97474.00;5012358;28;103350;-74
2021/01/01 00:24:50;;;;;;;37.67;26.03;;;;;;;2.50;100.00;97469.06;5003714;28;104627;-75
2021/01/01 00:27:18;;;;;;;32.90;25.43;;;;;;;2.54;100.00;97473.16;5017409;28;103796;-75
2021/01/01 00:29:45;;;;;;;33.27;24.77;;;;;;;2.60;100.00;97475.41;5019182;28;103828;-75
2021/01/01 00:32:13;;;;;;;31.90;23.73;;;;;;;2.56;100.00;97463.47;5019217;28;103324;-74
2021/01/01 00:34:40;;;;;;;29.17;21.30;;;;;;;2.67;100.00;97471.50;5017952;28;102998;-74
2021/01/01 00:37:07;;;;;;;28.90;20.00;;;;;;;2.74;100.00;97467.59;5019353;28;104460;-74
2021/01/01 00:39:34;;;;;;;21.67;16.47;;;;;;;2.80;100.00;97463.78;5010068;28;104844;-74
2021/01/01 00:42:02;;;;;;;27.27;18.73;;;;;;;2.81;100.00;97468.91;5005968;28;103351;-75
2021/01/01 00:44:31;;;;;;;25.30;16.97;;;;;;;2.74;100.00;97467.59;5018562;28;103250;-76
2021/01/01 00:46:59;;;;;;;18.17;14.10;;;;;;;2.69;100.00;97454.00;5012259;28;105449;-75
2021/01/01 00:49:26;;;;;;;17.93;13.93;;;;;;;2.76;100.00;97464.91;5008167;28;105122;-75
2021/01/01 00:51:53;;;;;;;21.03;16.13;;;;;;;2.79;100.00;97462.94;5014499;28;103195;-75
2021/01/01 00:54:20;;;;;;;17.83;12.63;;;;;;;2.88;99.72;97462.41;5002051;28;103197;-74
2021/01/01 00:56:47;;;;;;;13.33;9.37;;;;;;;3.02;99.42;97471.13;5008529;28;104642;-74
2021/01/01 00:59:14;;;;;;;15.40;11.87;;;;;;;3.06;99.65;97470.03;5006471;28;103687;-74
2021/01/01 01:01:41;;;;;;;21.53;16.50;;;;;;;3.10;99.69;97480.16;5015101;28;103257;-74
2021/01/01 01:04:09;;;;;;;18.53;13.87;;;;;;;3.12;99.16;97487.91;5018566;28;103589;-76
2021/01/01 01:06:36;;;;;;;20.80;14.37;;;;;;;3.14;99.42;97492.13;4996736;28;109556;-75
2021/01/01 01:09:03;;;;;;;18.53;12.77;;;;;;;3.12;99.16;97483.53;4997982;28;104898;-75
2021/01/01 01:11:31;;;;;;;17.87;14.10;;;;;;;3.15;99.38;97503.38;5000941;28;102992;-75
2021/01/01 01:14:00;;;;;;;17.07;14.33;;;;;;;3.14;99.21;97502.56;5002935;28;103424;-74
2021/01/01 01:16:29;;;;;;;18.30;14.00;;;;;;;3.09;98.97;97506.38;5016706;28;108099;-75
2021/01/01 01:18:57;;;;;;;19.03;15.90;;;;;;;2.97;99.48;97514.94;5011479;28;104773;-75
2021/01/01 01:21:25;;;;;;;19.63;15.40;;;;;;;3.01;100.00;97506.81;5005189;28;102641;-75
2021/01/01 01:23:53;;;;;;;16.40;13.90;;;;;;;2.99;99.62;97513.91;4991501;28;103823;-75
2021/01/01 01:26:20;;;;;;;21.43;17.93;;;;;;;2.73;100.00;97517.22;5002777;28;104121;-74
2021/01/01 01:28:48;;;;;;;16.47;14.23;;;;;;;2.72;100.00;97519.00;4998430;28;103991;-75
2021/01/01 01:31:16;;;;;;;11.43;10.23;;;;;;;2.90;100.00;97524.91;4976883;28;104698;-75
2021/01/01 01:33:43;;;;;;;12.97;11.00;;;;;;;3.05;100.00;97523.97;4990522;28;103213;-75
2021/01/01 01:36:10;;;;;;;9.80;8.17;;;;;;;3.15;100.00;97524.25;4998551;28;103561;-75
2021/01/01 01:38:38;;;;;;;9.80;7.83;;;;;;;3.21;100.00;97522.09;5014648;27;103139;-75
2021/01/01 01:41:05;;;;;;;10.00;7.97;;;;;;;3.28;99.43;97519.97;5013431;28;103054;-75
2021/01/01 01:43:34;;;;;;;14.90;12.43;;;;;;;3.22;99.41;97520.34;5018125;28;102999;-75
2021/01/01 01:46:01;;;;;;;11.67;8.90;;;;;;;3.29;99.45;97524.25;5000247;28;104832;-74
2021/01/01 01:48:30;;;;;;;11.80;8.87;;;;;;;3.32;99.79;97529.28;4991374;28;103703;-75
2021/01/01 01:50:58;;;;;;;13.30;11.37;;;;;;;3.39;99.41;97530.59;5005932;28;103199;-75
2021/01/01 01:53:26;;;;;;;17.37;14.23;;;;;;;3.31;99.62;97530.22;5004683;28;103287;-76
2021/01/01 01:55:55;;;;;;;15.40;13.00;;;;;;;3.27;99.59;97528.72;5021766;28;103524;-75
2021/01/01 01:58:23;;;;;;;15.83;10.77;;;;;;;3.33;99.77;97523.13;5015951;28;103040;-75
2021/01/01 02:00:57;;;;;;;14.13;9.77;;;;;;;3.39;99.77;97525.38;4998703;28;103588;-76
2021/01/01 02:03:26;;;;;;;18.93;14.83;;;;;;;3.31;99.14;97527.63;5004303;28;103807;-75
2021/01/01 02:05:53;;;;;;;14.93;12.70;;;;;;;3.32;99.92;97531.88;5012943;28;103913;-75
2021/01/01 02:08:20;;;;;;;13.07;9.73;;;;;;;3.40;100.00;97535.69;5022896;28;103249;-75
2021/01/01 02:10:50;;;;;;;11.27;9.20;;;;;;;3.47;99.91;97539.63;5013466;28;103198;-75
2021/01/01 02:13:19;;;;;;;14.80;11.97;;;;;;;3.52;99.77;97534.09;5004835;28;105408;-74
2021/01/01 02:15:46;;;;;;;19.87;15.93;;;;;;;3.50;98.82;97538.59;5001059;28;110258;-74
2021/01/01 02:18:13;;;;;;;16.47;13.07;;;;;;;3.44;98.82;97539.81;5005828;28;104242;-75
2021/01/01 02:20:40;;;;;;;14.97;11.27;;;;;;;3.48;98.95;97543.09;5006055;28;104079;-76
2021/01/01 02:23:08;;;;;;;12.13;9.80;;;;;;;3.51;98.64;97554.16;5010818;28;103059;-76
2021/01/01 02:25:35;;;;;;;13.57;11.53;;;;;;;3.56;98.48;97551.28;5011899;28;104377;-74
2021/01/01 02:28:02;;;;;;;13.17;9.77;;;;;;;3.59;98.34;97555.47;5004687;28;103825;-75
2021/01/01 02:30:32;;;;;;;11.87;9.67;;;;;;;3.56;98.07;97553.03;5020795;28;103286;-75
2021/01/01 02:32:59;;;;;;;14.37;12.83;;;;;;;3.57;98.66;97552.94;5026926;28;103904;-75
2021/01/01 02:35:26;;;;;;;17.50;14.77;;;;;;;3.52;98.63;97549.78;5001949;28;103753;-75
2021/01/01 02:37:53;;;;;;;13.77;10.90;;;;;;;3.43;99.10;97555.56;4992540;28;105459;-75
2021/01/01 02:40:21;;;;;;;11.63;8.97;;;;;;;3.54;99.56;97557.53;5014362;28;102924;-74
2021/01/01 02:42:48;;;;;;;18.33;14.53;;;;;;;3.56;99.05;97553.88;5005167;28;103015;-75
2021/01/01 02:45:16;;;;;;;16.13;12.00;;;;;;;3.58;99.53;97552.00;5007633;28;105318;-75
2021/01/01 02:47:43;;;;;;;19.43;15.67;;;;;;;3.49;99.27;97552.56;5007010;28;103690;-74
2021/01/01 02:50:12;;;;;;;12.10;10.23;;;;;;;3.52;100.00;97557.63;5018411;28;103322;-75
2021/01/01 02:52:39;;;;;;;14.87;12.77;;;;;;;3.53;99.31;97556.69;5025393;28;105958;-75
2021/01/01 02:55:08;;;;;;;10.07;8.43;;;;;;;3.58;99.39;97562.47;5024979;28;104532;-75
2021/01/01 02:57:36;;;;;;;14.70;12.53;;;;;;;3.59;98.97;97566.75;5012079;28;103749;-74
2021/01/01 03:00:04;;;;;;;14.43;12.93;;;;;;;3.57;98.96;97563.38;5003739;28;103254;-74
2021/01/01 03:02:31;;;;;;;15.87;13.83;;;;;;;3.55;99.11;97564.41;5010749;28;104823;-76
2021/01/01 03:04:58;;;;;;;13.40;11.37;;;;;;;3.53;99.47;97564.53;5004547;28;104098;-75
2021/01/01 03:07:25;;;;;;;11.80;9.07;;;;;;;3.52;99.09;97565.44;5020535;28;103269;-75
2021/01/01 03:09:52;;;;;;;12.27;9.40;;;;;;;3.58;99.02;97562.47;4999655;28;102967;-74
2021/01/01 03:12:19;;;;;;;14.27;11.47;;;;;;;3.48;98.89;97563.97;5001389;28;103165;-75
2021/01/01 03:14:47;;;;;;;9.43;8.10;;;;;;;3.59;99.32;97566.75;5000074;28;105423;-75
2021/01/01 03:17:14;;;;;;;8.67;7.53;;;;;;;3.65;99.11;97565.53;5006031;28;104563;-75
2021/01/01 03:19:41;;;;;;;16.03;12.73;;;;;;;3.56;98.30;97561.72;5015298;28;103965;-75
2021/01/01 03:22:08;;;;;;;12.30;9.07;;;;;;;3.57;98.89;97573.81;5019734;28;104026;-75
2021/01/01 03:24:35;;;;;;;15.30;12.60;;;;;;;3.57;98.84;97572.97;5005294;28;103847;-75
2021/01/01 03:27:02;;;;;;;13.40;11.87;;;;;;;3.51;99.38;97568.97;5000915;28;106431;-74
2021/01/01 03:29:29;;;;;;;10.93;7.83;;;;;;;3.62;99.67;97568.34;5020490;28;103007;-75
2021/01/01 03:31:57;;;;;;;9.93;7.70;;;;;;;3.68;99.65;97576.59;5008430;28;111125;-76
2021/01/01 03:34:24;;;;;;;9.67;7.13;;;;;;;3.73;99.36;97577.19;5020486;28;103437;-74
2021/01/01 03:36:51;;;;;;;9.87;7.23;;;;;;;3.76;99.50;97581.38;5019564;28;104286;-75
2021/01/01 03:39:18;;;;;;;14.50;12.73;;;;;;;3.63;99.61;97565.63;5019800;28;103124;-74
2021/01/01 03:41:45;;;;;;;15.63;12.50;;;;;;;3.52;100.00;97573.28;5020525;28;103611;-74
2021/01/01 03:44:12;;;;;;;11.63;8.77;;;;;;;3.61;100.00;97569.25;5002593;28;104114;-75
2021/01/01 03:46:39;;;;;;;10.67;8.10;;;;;;;3.67;100.00;97574.94;5016481;28;103737;-75
2021/01/01 03:49:07;;;;;;;10.33;8.00;;;;;;;3.71;100.00;97579.03;5002544;28;103424;-75
2021/01/01 03:51:34;;;;;;;15.07;10.83;;;;;;;3.74;100.00;97573.63;5019122;28;103355;-74
2021/01/01 03:54:01;;;;;;;18.80;15.43;;;;;;;3.66;100.00;97577.66;5020330;28;103844;-75
2021/01/01 03:56:28;;;;;;;15.87;13.20;;;;;;;3.62;100.00;97565.72;5009427;28;103779;-74
2021/01/01 03:58:55;;;;;;;15.53;13.40;;;;;;;3.63;100.00;97573.44;5016528;28;103146;-74
2021/01/01 04:01:22;;;;;;;15.80;13.70;;;;;;;3.55;100.00;97574.84;5003516;28;103292;-75
2021/01/01 04:03:49;;;;;;;12.70;10.10;;;;;;;3.59;100.00;97568.53;5001885;28;103420;-75
2021/01/01 04:06:17;;;;;;;14.53;11.53;;;;;;;3.62;100.00;97569.16;4990788;28;105278;-75
2021/01/01 04:08:44;;;;;;;17.77;12.90;;;;;;;3.55;100.00;97567.88;5012660;28;103369;-74
2021/01/01 04:11:11;;;;;;;17.53;14.33;;;;;;;3.38;100.00;97578.50;5002504;28;104353;-75
2021/01/01 04:13:38;;;;;;;15.90;13.63;;;;;;;3.24;100.00;97575.91;4998487;28;104938;-75
2021/01/01 04:16:05;;;;;;;17.93;14.17;;;;;;;2.97;100.00;97575.78;4998376;28;108625;-75
2021/01/01 04:18:32;;;;;;;16.00;14.00;;;;;;;2.77;100.00;97574.38;5001207;28;103037;-76
2021/01/01 04:20:59;;;;;;;18.37;14.97;;;;;;;2.79;100.00;97580.31;5013066;28;103407;-75
2021/01/01 04:23:27;;;;;;;16.07;13.17;;;;;;;2.89;100.00;97581.44;5020026;28;104337;-76
2021/01/01 04:25:54;;;;;;;18.40;14.67;;;;;;;2.83;100.00;97576.63;5007745;28;103873;-75
2021/01/01 04:28:21;;;;;;;18.20;15.70;;;;;;;2.72;100.00;97584.19;5005588;28;103328;-75
2021/01/01 04:30:48;;;;;;;17.73;14.77;;;;;;;2.80;100.00;97579.41;5007875;28;103338;-75
2021/01/01 04:33:15;;;;;;;17.93;14.50;;;;;;;2.79;100.00;97585.53;5020866;28;103932;-75
2021/01/01 04:35:42;;;;;;;18.33;15.07;;;;;;;2.76;100.00;97575.28;5011404;28;103761;-75
2021/01/01 04:38:09;;;;;;;18.53;13.17;;;;;;;2.85;100.00;97584.34;5000894;28;103610;-74
2021/01/01 04:40:37;;;;;;;19.17;14.30;;;;;;;3.01;100.00;97587.72;5009311;28;103263;-75
2021/01/01 04:43:04;;;;;;;16.50;13.47;;;;;;;3.00;100.00;97582.59;4987299;28;104120;-75
2021/01/01 04:45:32;;;;;;;15.70;13.33;;;;;;;2.96;100.00;97581.09;4998439;28;104307;-75
2021/01/01 04:48:00;;;;;;;17.53;14.43;;;;;;;3.03;100.00;97587.63;5007124;28;103047;-74
2021/01/01 04:50:27;;;;;;;16.67;12.73;;;;;;;3.14;100.00;97590.44;5000702;28;103180;-75
2021/01/01 04:52:57;;;;;;;14.73;10.00;;;;;;;3.20;100.00;97600.53;5011674;28;104445;-75
2021/01/01 04:55:26;;;;;;;12.27;10.57;;;;;;;3.16;100.00;97588.56;5019244;28;105476;-75
2021/01/01 04:57:54;;;;;;;19.00;13.20;;;;;;;2.93;100.00;97592.53;5009476;28;103973;-74
2021/01/01 05:00:22;;;;;;;17.47;14.43;;;;;;;2.89;100.00;97597.09;5007895;28;103453;-74
2021/01/01 05:02:49;;;;;;;16.80;13.47;;;;;;;2.93;100.00;97598.59;5011769;28;104335;-75
2021/01/01 05:05:16;;;;;;;14.33;10.67;;;;;;;3.12;100.00;97602.72;5007782;28;105296;-74
2021/01/01 05:07:45;;;;;;;13.47;9.27;;;;;;;3.18;100.00;97600.59;5020318;28;103041;-75
2021/01/01 05:10:12;;;;;;;14.23;10.97;;;;;;;3.18;100.00;97597.97;4995811;28;103366;-75
2021/01/01 05:12:39;;;;;;;14.67;12.03;;;;;;;3.15;100.00;97602.53;5018498;28;103869;-75
2021/01/01 05:15:09;;;;;;;15.80;12.90;;;;;;;3.17;100.00;97603.31;5001341;28;104394;-75
2021/01/01 05:17:37;;;;;;;10.47;9.00;;;;;;;3.28;100.00;97603.50;5000513;28;102994;-75
2021/01/01 05:20:09;;;;;;;16.57;12.63;;;;;;;3.24;100.00;97610.66;5010627;28;102908;-75
2021/01/01 05:22:37;;;;;;;15.57;11.63;;;;;;;3.25;100.00;97603.69;5002798;28;104724;-76
2021/01/01 05:25:16;;;;;;;14.20;12.00;;;;;;;3.24;100.00;97610.66;5000256;28;105582;-74
2021/01/01 05:27:47;;;;;;;12.60;9.23;;;;;;;3.30;100.00;97612.06;5003180;28;104746;-75
2021/01/01 05:30:16;;;;;;;10.60;8.97;;;;;;;3.24;100.00;97613.28;5006916;28;103452;-74
2021/01/01 05:32:51;;;;;;;16.10;11.47;;;;;;;3.16;100.00;97619.88;5019038;28;104544;-75
2021/01/01 05:35:27;;;;;;;14.43;11.63;;;;;;;3.33;100.00;97617.97;4990388;28;103892;-74
2021/01/01 05:37:54;;;;;;;11.73;8.77;;;;;;;3.41;100.00;97620.09;5005027;28;103170;-75
2021/01/01 05:40:29;;;;;;;18.37;13.97;;;;;;;2.96;100.00;97613.25;5015853;28;103192;-75
2021/01/01 05:42:57;;;;;;;19.47;14.80;;;;;;;3.10;100.00;97625.47;5004800;28;103645;-75
2021/01/01 05:45:29;;;;;;;10.67;8.63;;;;;;;3.26;100.00;97626.22;5005716;28;103784;-75
2021/01/01 05:48:04;;;;;;;12.60;9.80;;;;;;;3.34;100.00;97630.06;5015718;28;103157;-75
2021/01/01 05:50:32;;;;;;;11.10;8.83;;;;;;;3.43;100.00;97639.13;5016769;28;105310;-75
2021/01/01 05:53:15;;;;;;;12.33;9.70;;;;;;;3.43;100.00;97637.34;5000256;28;103809;-74
2021/01/01 05:55:43;;;;;;;10.60;8.67;;;;;;;3.51;100.00;97642.09;5012006;28;103977;-75
2021/01/01 05:58:23;;;;;;;13.93;11.13;;;;;;;3.51;100.00;97642.09;5007677;28;103412;-75
2021/01/01 06:00:56;;;;;;;12.00;10.30;;;;;;;3.45;100.00;97647.72;4998117;28;103354;-75
2021/01/01 06:03:28;;;;;;;11.47;9.77;;;;;;;3.14;100.00;97650.47;4998948;28;103929;-75
2021/01/01 06:05:56;;;;;;;11.17;9.97;;;;;;;2.97;100.00;97661.91;4998169;28;104372;-75
2021/01/01 06:08:25;;;;;;;12.80;10.00;;;;;;;2.82;100.00;97663.63;5010190;28;103226;-75
2021/01/01 06:10:53;;;;;;;11.97;10.17;;;;;;;2.88;100.00;97668.47;5005513;28;103324;-75
2021/01/01 06:13:21;;;;;;;10.83;9.27;;;;;;;2.85;100.00;97662.59;5006528;28;105681;-75
2021/01/01 06:15:57;;;;;;;12.53;9.90;;;;;;;3.01;100.00;97666.00;4999110;28;111789;-75
2021/01/01 06:18:29;;;;;;;11.00;8.70;;;;;;;3.02;100.00;97666.84;5018666;28;103215;-74
2021/01/01 06:21:01;;;;;;;11.07;9.63;;;;;;;3.03;100.00;97671.13;5009593;28;103104;-75
2021/01/01 06:23:34;;;;;;;11.90;9.20;;;;;;;3.02;100.00;97680.72;5005487;28;104234;-75
2021/01/01 06:26:02;;;;;;;9.83;8.50;;;;;;;3.04;100.00;97678.00;5002387;28;104937;-75
2021/01/01 06:28:31;;;;;;;9.10;7.47;;;;;;;3.01;100.00;97681.66;5004632;28;103134;-75
2021/01/01 06:31:00;;;;;;;7.00;5.93;;;;;;;3.02;100.00;97691.16;5021230;28;103319;-76
2021/01/01 06:33:31;;;;;;;6.10;5.50;;;;;;;3.08;99.32;97687.34;5009084;28;103859;-74
2021/01/01 06:35:58;;;;;;;6.60;5.90;;;;;;;3.18;99.71;97685.88;5001240;28;104388;-75
2021/01/01 06:38:36;;;;;;;6.20;5.60;;;;;;;3.12;98.69;97687.06;5016571;28;103060;-75
2021/01/01 06:41:04;;;;;;;5.70;5.00;;;;;;;3.03;97.67;97698.06;5004373;28;103656;-75
2021/01/01 06:43:52;;;;;;;5.27;4.77;;;;;;;3.14;98.31;97705.28;5003037;28;104580;-74
2021/01/01 06:46:33;;;;;;;6.03;5.07;;;;;;;3.12;97.88;97697.53;5006775;28;103378;-76
2021/01/01 06:49:00;;;;;;;5.60;4.60;;;;;;;3.10;98.08;97699.38;5008045;28;103362;-74
2021/01/01 06:51:30;;;;;;;3.83;3.13;;;;;;;3.15;97.84;97706.94;5000003;28;103373;-75
2021/01/01 06:54:13;;;;;;;5.23;4.73;;;;;;;3.13;98.03;97703.59;5018966;28;105268;-75
2021/01/01 06:56:41;;;;;;;6.33;4.77;;;;;;;3.10;98.26;97708.97;5004052;28;103643;-75
2021/01/01 06:59:13;;;;;;;5.83;5.13;;;;;;;3.12;97.72;97712.31;5000527;28;103333;-75
2021/01/01 07:01:43;;;;;;;5.07;4.57;;;;;;;3.05;97.12;97716.25;5002248;28;103291;-75
2021/01/01 07:04:10;;;;;;;4.00;3.60;;;;;;;3.08;97.43;97716.06;5006310;28;104318;-75
2021/01/01 07:06:42;;;;;;;4.80;4.30;;;;;;;3.06;97.07;97718.75;5021057;28;103345;-75
2021/01/01 07:09:13;;;;;;;4.47;4.07;;;;;;;3.13;97.18;97729.69;5005634;28;105312;-74
2021/01/01 07:11:46;;;;;;;4.50;4.10;;;;;;;3.06;96.79;97723.16;5020854;28;102888;-76
2021/01/01 07:14:19;;;;;;;4.20;3.80;;;;;;;3.04;98.21;97719.75;5023269;28;104119;-75
2021/01/01 07:16:48;;;;;;;4.13;3.70;;;;;;;3.01;98.05;97725.16;5019229;28;105086;-75
2021/01/01 07:19:16;;;;;;;5.10;4.43;;;;;;;3.02;97.26;97726.84;5001055;28;104676;-75
2021/01/01 07:21:44;;;;;;;4.20;3.80;;;;;;;2.92;96.99;97732.59;5010644;28;103486;-74
2021/01/01 07:24:11;;;;;;;4.83;3.57;;;;;;;3.02;96.82;97724.25;5011454;28;104055;-74
2021/01/01 07:26:38;;;;;;;3.80;3.40;;;;;;;3.07;95.78;97738.69;5002924;28;106004;-75
2021/01/01 07:29:05;;;;;;;3.37;3.07;;;;;;;3.06;95.52;97739.63;5010655;28;103130;-74
2021/01/01 07:31:33;;;;;;;4.77;4.37;;;;;;;3.10;95.46;97740.28;5019342;28;103538;-75
2021/01/01 07:34:13;;;;;;;3.53;3.23;;;;;;;3.09;94.56;97749.06;5020310;28;103801;-74
2021/01/01 07:36:40;;;;;;;2.80;2.60;;;;;;;3.14;95.27;97752.25;5021199;27;104313;-75
2021/01/01 07:39:08;;;;;;;2.67;2.27;;;;;;;3.18;95.45;97753.75;5009088;28;103180;-74
2021/01/01 07:41:35;;;;;;;3.67;3.37;;;;;;;3.22;95.35;97757.88;4989320;28;103288;-75
2021/01/01 07:44:03;;;;;;;4.53;3.77;;;;;;;3.19;96.15;97750.22;5000307;28;105711;-75
2021/01/01 07:46:32;;;;;;;3.20;2.90;;;;;;;3.20;95.31;97757.13;4999183;28;107098;-75
2021/01/01 07:49:01;;;;;;;4.00;3.10;;;;;;;3.13;94.76;97756.63;5002384;28;103226;-74
2021/01/01 07:51:29;;;;;;;2.73;2.53;;;;;;;3.10;94.79;97767.25;4999923;28;103868;-75
2021/01/01 07:54:15;;;;;;;3.73;3.40;;;;;;;3.03;94.35;97767.69;5020540;28;103942;-75
2021/01/01 07:56:42;;;;;;;2.70;2.40;;;;;;;3.16;95.83;97766.03;5007171;28;103805;-77
2021/01/01 07:59:09;;;;;;;3.33;3.03;;;;;;;3.26;95.52;97775.03;5004991;28;103043;-76
2021/01/01 08:01:36;;;;;;;2.80;2.13;;;;;;;3.28;95.54;97779.25;5017708;28;103292;-75
2021/01/01 08:04:03;;;;;;;3.00;2.70;;;;;;;3.32;94.66;97779.88;5019122;28;103702;-77
2021/01/01 08:06:36;;;;;;;3.13;2.73;;;;;;;3.35;94.46;97782.31;5003087;28;106090;-76
2021/01/01 08:09:04;;;;;;;3.10;2.80;;;;;;;3.33;95.82;97785.03;5015943;28;103111;-77
2021/01/01 08:11:33;;;;;;;3.73;3.27;;;;;;;3.14;94.88;97794.00;4986004;28;103160;-77
2021/01/01 08:14:00;;;;;;;3.33;3.03;;;;;;;3.22;94.66;97792.66;5005823;28;103927;-78
2021/01/01 08:16:28;;;;;;;4.07;3.77;;;;;;;2.99;95.51;97793.09;5017176;28;105301;-77
2021/01/01 08:18:55;;;;;;;4.60;4.00;;;;;;;2.86;95.59;97784.28;5019740;28;103097;-78
2021/01/01 08:21:22;;;;;;;3.93;3.50;;;;;;;2.99;96.69;97784.44;5021302;28;103347;-78
2021/01/01 08:24:03;;;;;;;4.40;4.00;;;;;;;2.98;96.89;97786.19;5001259;28;106475;-77
2021/01/01 08:26:34;;;;;;;3.57;3.27;;;;;;;3.06;97.90;97791.81;5008156;28;104831;-78
2021/01/01 08:29:02;;;;;;;3.37;3.07;;;;;;;3.09;97.05;97803.88;5006506;28;103026;-77
2021/01/01 08:31:29;;;;;;;3.80;3.50;;;;;;;3.22;96.06;97797.88;4978967;28;103152;-78
2021/01/01 08:33:56;;;;;;;3.50;3.13;;;;;;;3.19;94.85;97810.25;5012807;28;112684;-77
2021/01/01 08:36:31;;;;;;;3.20;2.60;;;;;;;3.27;93.56;97806.28;5004317;28;104005;-75
2021/01/01 08:39:07;;;;;;;3.80;3.40;;;;;;;3.27;92.11;97805.44;5003049;28;103460;-76
2021/01/01 08:41:41;;;;;;;3.83;3.50;;;;;;;3.23;92.53;97819.59;5004780;28;103268;-76
2021/01/01 08:44:10;;;;;;;2.93;2.40;;;;;;;3.35;92.56;97822.34;5019242;28;104474;-76
2021/01/01 08:46:37;;;;;;;3.23;2.93;;;;;;;3.28;93.90;97813.19;5007008;28;103795;-76
2021/01/01 08:49:18;;;;;;;2.63;2.43;;;;;;;3.39;94.24;97821.25;5017229;28;103280;-77
2021/01/01 08:51:46;;;;;;;3.17;2.87;;;;;;;3.49;94.14;97822.38;5016775;27;104416;-78
2021/01/01 08:54:26;;;;;;;3.70;3.40;;;;;;;3.51;92.33;97830.13;4978444;28;103517;-77
2021/01/01 08:56:58;;;;;;;3.70;2.90;;;;;;;3.44;92.24;97831.41;4985819;28;103790;-76
2021/01/01 08:59:26;;;;;;;3.80;3.40;;;;;;;3.42;91.86;97825.44;4997237;28;103019;-78
2021/01/01 09:01:54;;;;;;;3.30;2.80;;;;;;;3.63;93.15;97829.41;4999149;28;103601;-78
2021/01/01 09:04:24;;;;;;;3.20;2.90;;;;;;;3.59;91.35;97835.78;4994830;28;105079;-77
2021/01/01 09:06:55;;;;;;;3.10;2.80;;;;;;;3.69;90.99;97829.06;5021022;28;103109;-78
2021/01/01 09:09:28;;;;;;;2.40;2.20;;;;;;;3.82;91.09;97835.25;5009832;28;103306;-78
2021/01/01 09:12:15;;;;;;;3.60;3.30;;;;;;;3.81;91.03;97840.59;5004957;28;103188;-78
2021/01/01 09:14:47;;;;;;;2.70;2.50;;;;;;;3.83;91.50;97842.16;5007276;28;103935;-77
2021/01/01 09:17:14;;;;;;;2.93;2.73;;;;;;;3.91;90.76;97845.16;5017107;28;110142;-78
2021/01/01 09:19:41;;;;;;;3.30;3.00;;;;;;;3.77;88.32;97844.28;4997324;28;102917;-78
2021/01/01 09:22:17;;;;;;;3.70;3.40;;;;;;;3.56;89.85;97851.63;5015684;28;103072;-80
2021/01/01 09:24:46;;;;;;;3.60;3.30;;;;;;;3.77;89.78;97837.28;5012760;28;103735;-82
2021/01/01 09:27:13;;;;;;;3.57;3.27;;;;;;;3.89;91.27;97847.03;5025322;28;103447;-78
2021/01/01 09:29:41;;;;;;;3.40;3.10;;;;;;;3.90;88.76;97845.28;5017132;27;103173;-80
2021/01/01 09:32:12;;;;;;;3.33;3.00;;;;;;;3.94;89.41;97845.00;5022500;28;102941;-78
2021/01/01 09:34:40;;;;;;;4.97;3.20;;;;;;;3.86;87.20;97856.81;5016811;28;104835;-77
2021/01/01 09:37:09;;;;;;;3.53;2.83;;;;;;;3.99;87.16;97853.41;5008901;28;103720;-77
2021/01/01 09:39:36;;;;;;;6.60;5.50;;;;;;;3.90;87.35;97853.94;5012415;28;103304;-77
2021/01/01 09:42:04;;;;;;;5.27;4.73;;;;;;;4.13;87.31;97864.81;5016153;28;103644;-77
2021/01/01 09:44:31;;;;;;;4.93;4.43;;;;;;;4.30;88.71;97855.00;5007676;28;103691;-77
2021/01/01 09:46:58;;;;;;;4.63;4.13;;;;;;;4.38;88.69;97859.81;5000020;28;104806;-76
2021/01/01 09:49:26;;;;;;;3.77;3.17;;;;;;;4.43;88.42;97862.97;5017464;28;103764;-76
2021/01/01 09:51:53;;;;;;;3.20;2.90;;;;;;;4.53;87.66;97867.53;5001762;28;103332;-76
2021/01/01 09:54:34;;;;;;;3.30;2.87;;;;;;;4.61;87.13;97861.84;5012464;28;103397;-77
2021/01/01 09:57:01;;;;;;;3.13;2.83;;;;;;;4.46;86.42;97865.41;5019360;28;105491;-76
2021/01/01 09:59:29;;;;;;;3.63;3.33;;;;;;;4.45;85.65;97866.34;5018807;28;103666;-73
2021/01/01 10:01:57;;;;;;;3.47;3.17;;;;;;;4.19;84.32;97865.28;5012831;28;102992;-74
2021/01/01 10:04:24;;;;;;;3.53;3.23;;;;;;;4.42;85.88;97866.50;5010281;28;104372;-73
2021/01/01 10:06:51;;;;;;;4.63;3.90;;;;;;;3.87;85.90;97872.44;5012465;28;103997;-74
2021/01/01 10:09:18;;;;;;;4.87;3.30;;;;;;;4.29;87.96;97862.97;4998297;28;103825;-75
2021/01/01 10:11:48;;;;;;;4.23;3.83;;;;;;;4.31;85.35;97871.56;5009279;28;103193;-78
2021/01/01 10:14:16;;;;;;;4.30;3.90;;;;;;;4.39;85.36;97867.53;5015115;28;103656;-75
2021/01/01 10:16:47;;;;;;;5.03;4.53;;;;;;;4.46;86.22;97868.84;5012527;28;103233;-75
2021/01/01 10:19:14;;;;;;;3.93;3.53;;;;;;;4.13;84.15;97870.88;5013177;28;103166;-80
2021/01/01 10:21:41;;;;;;;4.27;3.87;;;;;;;4.46;86.07;97868.03;5009007;28;105422;-75
2021/01/01 10:24:09;;;;;;;3.70;3.40;;;;;;;4.64;84.04;97866.88;5010337;28;103846;-75
2021/01/01 10:26:36;;;;;;;4.43;4.03;;;;;;;4.67;84.36;97874.53;4989741;28;104664;-75
2021/01/01 10:29:14;;;;;;;5.13;4.63;;;;;;;4.60;84.22;97870.63;4996283;28;103585;-74
2021/01/01 10:31:42;;;;;;;4.47;4.07;;;;;;;4.77;84.46;97859.97;5013103;28;103168;-76
2021/01/01 10:34:10;;;;;;;4.37;3.63;;;;;;;4.71;83.44;97872.59;5013584;28;103851;-76
2021/01/01 10:36:38;;;;;;;4.70;4.23;;;;;;;4.72;81.48;97869.00;5012149;28;104453;-75
2021/01/01 10:39:06;;;;;;;4.33;3.93;;;;;;;4.77;82.59;97867.81;5012363;28;105417;-75
2021/01/01 10:41:33;;;;;;;4.63;4.23;;;;;;;4.75;84.57;97864.44;4996310;27;106237;-76
2021/01/01 10:44:01;;;;;;;3.43;3.13;;;;;;;4.95;83.98;97860.59;5003156;27;104417;-75
2021/01/01 10:46:28;;;;;;;5.73;5.13;;;;;;;4.61;84.00;97859.22;5005400;28;104095;-75
2021/01/01 10:48:56;;;;;;;5.03;4.53;;;;;;;4.67;84.94;97861.47;5010736;28;103302;-75
2021/01/01 10:51:26;;;;;;;5.83;5.30;;;;;;;4.64;82.92;97846.78;5008467;28;105201;-75
2021/01/01 10:53:53;;;;;;;4.70;4.30;;;;;;;4.70;84.29;97850.81;5012553;28;103239;-76
2021/01/01 10:56:21;;;;;;;5.53;4.63;;;;;;;4.70;83.10;97850.81;4996843;28;103948;-75
2021/01/01 10:58:48;;;;;;;5.80;5.20;;;;;;;4.74;82.80;97852.31;4999181;28;103365;-75
2021/01/01 11:01:18;;;;;;;4.37;3.97;;;;;;;4.69;83.31;97854.34;4990541;28;103589;-76
2021/01/01 11:03:46;;;;;;;5.60;5.00;;;;;;;4.65;82.74;97860.72;5012518;28;104435;-76
2021/01/01 11:06:13;;;;;;;5.73;5.10;;;;;;;4.36;82.36;97856.41;4996455;28;107081;-75
2021/01/01 11:08:42;;;;;;;5.97;5.37;;;;;;;4.56;83.43;97845.59;5012852;28;104400;-77
2021/01/01 11:11:10;;;;;;;5.50;4.97;;;;;;;4.59;81.76;97858.47;5001093;28;103201;-76
2021/01/01 11:13:39;;;;;;;5.50;4.63;;;;;;;4.74;82.21;97857.56;5022516;28;104597;-77
2021/01/01 12:22:39;;;;;;;4.20;3.80;;;;;;;5.16;81.18;97818.19;4957835;28;106274;-77
2021/01/01 12:25:07;;;;;;;6.47;5.17;;;;;;;5.22;81.20;97817.78;4986266;28;103400;-77
2021/01/01 12:27:39;;;;;;;6.20;5.60;;;;;;;5.10;80.21;97818.59;4988182;28;103415;-77
2021/01/01 12:30:12;;;;;;;6.40;5.57;;;;;;;5.01;80.96;97816.53;5004481;28;104447;-77
2021/01/01 12:32:40;;;;;;;5.40;4.87;;;;;;;5.21;81.84;97821.34;4988197;28;105711;-77
2021/01/01 12:35:09;;;;;;;7.00;5.90;;;;;;;5.28;81.16;97813.91;4997096;28;103114;-78